createdAt,value
2023-05-20T00:01:06.200Z,35.50
2023-05-20T00:03:34.214Z,43.20
2023-05-20T00:06:02.175Z,42.20
2023-05-20T00:08:29.948Z,39.00
2023-05-20T00:10:57.762Z,38.00
2023-05-20T00:13:25.640Z,39.00
2023-05-20T00:15:53.806Z,44.10
2023-05-20T00:18:21.700Z,30.60
2023-05-20T00:20:49.446Z,38.70
2023-05-20T00:23:17.261Z,39.40
2023-05-20T00:25:45.099Z,41.40
2023-05-20T00:28:12.973Z,39.70
2023-05-20T00:30:43.741Z,38.40
2023-05-20T00:33:11.546Z,39.30
2023-05-20T00:35:39.483Z,40.70
2023-05-20T00:38:07.418Z,36.30
2023-05-20T00:40:35.279Z,39.40
2023-05-20T00:43:04.175Z,38.80
2023-05-20T00:45:32.432Z,38.80
2023-05-20T00:48:02.538Z,38.60
2023-05-20T00:50:30.365Z,37.70
2023-05-20T00:52:58.886Z,41.20
2023-05-20T00:55:26.688Z,37.10
2023-05-20T00:57:54.507Z,36.70
2023-05-20T01:00:22.759Z,41.40
2023-05-20T01:02:51.679Z,38.60
2023-05-20T01:05:19.681Z,35.00
2023-05-20T01:07:47.455Z,34.50
2023-05-20T01:10:15.462Z,36.40
2023-05-20T01:12:47.955Z,34.60
2023-05-20T01:15:16.235Z,43.50
2023-05-20T01:17:47.121Z,35.70
2023-05-20T01:20:15.472Z,39.90
2023-05-20T01:22:53.414Z,33.20
2023-05-20T01:25:21.704Z,36.30
2023-05-20T01:27:49.652Z,35.30
2023-05-20T01:30:17.569Z,32.00
2023-05-20T01:32:52.930Z,32.80
2023-05-20T01:35:21.803Z,35.90
2023-05-20T01:37:52.481Z,35.70
2023-05-20T01:40:21.275Z,32.60
2023-05-20T01:42:53.300Z,33.80
2023-05-20T01:45:21.800Z,36.20
2023-05-20T01:47:50.169Z,32.50
2023-05-20T01:50:18.210Z,35.70
2023-05-20T01:52:46.091Z,31.50
2023-05-20T01:55:15.153Z,36.50
2023-05-20T01:57:43.099Z,37.50
2023-05-20T02:00:11.907Z,35.70
2023-05-20T02:02:42.791Z,31.50
2023-05-20T02:05:12.932Z,38.50
2023-05-20T02:07:43.506Z,36.40
2023-05-20T02:10:11.648Z,37.60
2023-05-20T02:12:39.669Z,32.30
2023-05-20T02:15:08.157Z,34.40
2023-05-20T02:17:37.391Z,32.70
2023-05-20T02:20:07.958Z,35.00
2023-05-20T02:22:36.664Z,38.90
2023-05-20T02:25:05.368Z,29.80
2023-05-20T02:27:33.260Z,33.00
2023-05-20T02:30:01.391Z,37.40
2023-05-20T02:32:29.719Z,36.30
2023-05-20T02:34:57.533Z,36.60
2023-05-20T02:37:25.377Z,34.90
2023-05-20T02:39:53.279Z,33.00
2023-05-20T02:42:21.174Z,30.80
2023-05-20T02:44:49.687Z,34.90
2023-05-20T02:47:17.602Z,34.60
2023-05-20T02:49:46.896Z,32.10
2023-05-20T02:52:16.512Z,32.40
2023-05-20T02:54:44.424Z,36.40
2023-05-20T02:57:12.678Z,32.60
2023-05-20T02:59:40.815Z,30.90
2023-05-20T03:02:09.058Z,31.30
2023-05-20T03:04:38.976Z,34.10
2023-05-20T03:07:10.109Z,36.10
2023-05-20T03:09:37.944Z,35.00
2023-05-20T03:12:06.492Z,37.50
2023-05-20T03:14:34.403Z,35.10
2023-05-20T03:17:02.216Z,34.90
2023-05-20T03:19:30.380Z,36.40
2023-05-20T03:21:58.296Z,34.20
2023-05-20T03:24:27.177Z,36.20
2023-05-20T03:26:56.191Z,32.40
2023-05-20T03:29:24.084Z,34.30
2023-05-20T03:31:52.022Z,33.30
2023-05-20T03:34:19.971Z,32.40
2023-05-20T03:36:48.698Z,31.90
2023-05-20T03:39:16.595Z,31.20
2023-05-20T03:41:45.391Z,32.20
2023-05-20T03:44:14.136Z,33.50
2023-05-20T03:46:42.162Z,33.20
2023-05-20T03:49:09.921Z,35.70
2023-05-20T03:51:37.669Z,34.30
2023-05-20T03:54:09.671Z,29.40
2023-05-20T03:56:37.577Z,32.30
2023-05-20T03:59:05.691Z,32.20
2023-05-20T04:01:33.978Z,31.10
2023-05-20T04:04:01.953Z,29.50
2023-05-20T04:06:31.632Z,34.60
2023-05-20T04:09:00.235Z,32.60
2023-05-20T04:11:28.251Z,31.40
2023-05-20T04:13:56.126Z,31.50
2023-05-20T04:16:25.186Z,34.80
2023-05-20T04:18:53.442Z,32.20
2023-05-20T04:21:21.921Z,36.50
2023-05-20T04:23:50.208Z,30.60
2023-05-20T04:26:18.086Z,30.80
2023-05-20T04:28:48.800Z,32.30
2023-05-20T04:31:16.945Z,31.00
2023-05-20T04:33:45.058Z,34.00
2023-05-20T04:36:15.567Z,32.70
2023-05-20T04:38:44.789Z,29.80
2023-05-20T04:41:12.906Z,30.40
2023-05-20T04:43:41.028Z,28.60
2023-05-20T04:46:09.965Z,34.40
2023-05-20T04:48:38.229Z,31.10
2023-05-20T04:51:06.793Z,26.60
2023-05-20T04:53:36.175Z,27.50
2023-05-20T04:56:04.363Z,29.00
2023-05-20T04:58:33.556Z,30.30
2023-05-20T05:01:02.748Z,30.20
2023-05-20T05:03:31.434Z,31.20
2023-05-20T05:05:59.739Z,30.30
2023-05-20T05:08:27.599Z,36.10
2023-05-20T05:10:55.718Z,35.20
2023-05-20T05:13:23.840Z,29.80
2023-05-20T05:16:01.536Z,30.40
2023-05-20T05:18:30.394Z,28.90
2023-05-20T05:21:02.851Z,28.80
2023-05-20T05:23:30.885Z,27.60
2023-05-20T05:25:58.853Z,28.70
2023-05-20T05:28:26.803Z,29.10
2023-05-20T05:30:56.429Z,30.30
2023-05-20T05:33:24.478Z,30.80
2023-05-20T05:35:52.412Z,29.50
2023-05-20T05:38:20.251Z,27.80
2023-05-20T05:40:48.096Z,27.40
2023-05-20T05:43:16.569Z,26.80
2023-05-20T05:45:45.574Z,30.40
2023-05-20T05:48:14.290Z,27.40
2023-05-20T05:50:46.672Z,26.90
2023-05-20T05:53:16.217Z,29.50
2023-05-20T05:55:49.063Z,29.80
2023-05-20T05:58:17.711Z,31.60
2023-05-20T06:00:46.270Z,35.30
2023-05-20T06:03:14.340Z,28.40
2023-05-20T06:05:47.352Z,29.30
2023-05-20T06:08:15.248Z,29.00
2023-05-20T06:10:49.038Z,29.40
2023-05-20T06:13:17.602Z,27.90
2023-05-20T06:15:46.462Z,29.60
2023-05-20T06:18:14.356Z,28.60
2023-05-20T06:20:42.872Z,31.10
2023-05-20T06:23:10.930Z,26.60
2023-05-20T06:25:52.646Z,31.10
2023-05-20T06:28:20.854Z,26.80
2023-05-20T06:30:48.796Z,24.90
2023-05-20T06:33:18.050Z,29.00
2023-05-20T06:35:45.927Z,28.10
2023-05-20T06:38:13.762Z,28.20
2023-05-20T06:40:41.712Z,27.60
2023-05-20T06:43:10.075Z,27.10
2023-05-20T06:45:55.453Z,25.90
2023-05-20T06:48:33.973Z,25.00
2023-05-20T06:51:02.021Z,22.30
2023-05-20T06:53:29.858Z,28.50
2023-05-20T06:55:58.371Z,23.90
2023-05-20T06:58:28.050Z,23.80
2023-05-20T07:00:57.929Z,24.30
2023-05-20T07:03:26.600Z,25.90
2023-05-20T07:05:54.837Z,24.50
2023-05-20T07:08:22.887Z,24.10
2023-05-20T07:10:50.911Z,23.60
2023-05-20T07:13:24.156Z,23.00
2023-05-20T07:15:52.451Z,22.50
2023-05-20T07:18:21.722Z,21.30
2023-05-20T07:20:54.219Z,21.70
2023-05-20T07:23:48.522Z,21.90
2023-05-20T07:26:16.974Z,19.10
2023-05-20T07:28:45.699Z,20.20
2023-05-20T07:31:13.976Z,19.60
2023-05-20T07:33:45.780Z,21.10
2023-05-20T07:36:13.957Z,19.50
2023-05-20T07:38:53.179Z,19.10
2023-05-20T07:41:30.483Z,21.90
2023-05-20T07:43:58.387Z,19.50
2023-05-20T07:46:26.448Z,21.40
2023-05-20T07:48:54.444Z,17.40
2023-05-20T07:51:22.337Z,20.10
2023-05-20T07:53:50.238Z,19.00
2023-05-20T07:56:19.143Z,19.60
2023-05-20T07:58:58.668Z,19.50
2023-05-20T08:01:29.718Z,19.40
2023-05-20T08:03:58.012Z,18.80
2023-05-20T08:06:29.363Z,19.40
2023-05-20T08:08:58.408Z,19.90
2023-05-20T08:11:30.907Z,18.90
2023-05-20T08:13:59.612Z,17.30
2023-05-20T08:16:29.044Z,20.40
2023-05-20T08:18:57.149Z,19.00
2023-05-20T08:21:24.995Z,17.90
2023-05-20T08:23:53.999Z,19.30
2023-05-20T08:26:22.223Z,19.40
2023-05-20T08:28:51.323Z,18.20
2023-05-20T08:31:19.536Z,18.40
2023-05-20T08:33:47.491Z,20.10
2023-05-20T08:36:15.820Z,18.10
2023-05-20T08:38:43.799Z,20.60
2023-05-20T08:41:12.078Z,20.30
2023-05-20T08:43:40.544Z,20.50
2023-05-20T08:46:08.986Z,19.10
2023-05-20T08:48:37.256Z,17.80
2023-05-20T08:51:05.146Z,18.10
2023-05-20T08:53:33.082Z,20.50
2023-05-20T08:56:03.371Z,20.20
2023-05-20T08:58:32.935Z,20.80
2023-05-20T09:01:01.188Z,18.40
2023-05-20T09:03:29.054Z,17.20
2023-05-20T09:06:09.598Z,18.30
2023-05-20T09:08:37.595Z,18.70
2023-05-20T09:11:05.803Z,18.30
2023-05-20T09:13:34.208Z,17.90
2023-05-20T09:16:02.505Z,17.50
2023-05-20T09:18:30.547Z,18.90
2023-05-20T09:20:58.602Z,20.60
2023-05-20T09:23:27.685Z,23.20
2023-05-20T09:25:55.786Z,20.80
2023-05-20T09:28:25.361Z,19.70
2023-05-20T09:30:59.945Z,19.00
2023-05-20T09:33:32.902Z,18.60
2023-05-20T09:36:08.806Z,20.20
2023-05-20T09:38:40.300Z,20.00
2023-05-20T09:41:12.632Z,18.60
2023-05-20T09:43:40.876Z,21.10
2023-05-20T09:46:08.953Z,19.30
2023-05-20T09:48:37.704Z,19.20
2023-05-20T09:51:07.027Z,25.00
2023-05-20T09:53:35.021Z,20.50
2023-05-20T09:56:03.385Z,20.20
2023-05-20T09:58:31.489Z,19.20
2023-05-20T10:00:59.404Z,19.40
2023-05-20T10:03:28.322Z,19.70
2023-05-20T10:06:54.420Z,17.20
2023-05-20T10:09:43.198Z,20.70
2023-05-20T10:13:01.595Z,17.80
2023-05-20T10:15:55.699Z,19.90
2023-05-20T10:18:56.014Z,19.50
2023-05-20T10:21:24.735Z,18.30
2023-05-20T10:23:52.657Z,22.60
2023-05-20T10:26:22.109Z,19.90
2023-05-20T10:28:50.108Z,19.60
2023-05-20T10:31:24.148Z,20.20
2023-05-20T10:33:53.368Z,21.60
2023-05-20T10:36:27.013Z,20.20
2023-05-20T10:38:56.178Z,17.90
2023-05-20T10:41:27.118Z,18.30
2023-05-20T10:44:03.295Z,18.90
2023-05-20T10:46:40.069Z,16.10
2023-05-20T10:49:26.899Z,19.20
2023-05-20T10:51:56.259Z,20.30
2023-05-20T10:54:24.198Z,19.50
2023-05-20T10:56:54.557Z,17.40
2023-05-20T10:59:22.494Z,16.70
2023-05-20T11:01:51.295Z,18.20
2023-05-20T11:04:19.841Z,20.80
2023-05-20T11:06:54.203Z,18.80
2023-05-20T11:09:23.038Z,20.80
2023-05-20T11:11:51.804Z,17.40
2023-05-20T11:14:20.310Z,20.10
2023-05-20T11:16:53.605Z,17.80
2023-05-20T11:19:21.654Z,18.60
2023-05-20T11:21:49.582Z,17.90
2023-05-20T11:24:26.886Z,18.60
2023-05-20T11:26:56.227Z,20.20
2023-05-20T11:29:26.797Z,16.10
2023-05-20T11:31:55.183Z,15.90
2023-05-20T11:34:25.947Z,18.30
2023-05-20T11:36:58.909Z,16.60
2023-05-20T11:39:30.235Z,17.90
2023-05-20T11:41:58.290Z,15.50
2023-05-20T11:44:26.460Z,14.50
2023-05-20T11:47:01.240Z,17.90
2023-05-20T11:49:30.317Z,17.10
2023-05-20T11:52:00.286Z,17.20
2023-05-20T11:54:28.283Z,18.90
2023-05-20T11:56:56.689Z,15.70
2023-05-20T11:59:24.929Z,15.30
2023-05-20T12:01:52.925Z,16.20
2023-05-20T12:04:20.897Z,15.90
2023-05-20T12:06:51.226Z,17.10
2023-05-20T12:09:19.234Z,18.30
2023-05-20T12:11:48.292Z,16.40
2023-05-20T12:14:16.465Z,15.80
2023-05-20T12:16:45.164Z,15.60
2023-05-20T12:19:13.244Z,15.40
2023-05-20T12:21:42.242Z,16.30
2023-05-20T12:24:11.288Z,17.60
2023-05-20T12:26:41.362Z,14.10
2023-05-20T12:29:09.333Z,15.40
2023-05-20T12:31:38.556Z,14.90
2023-05-20T12:34:06.422Z,16.00
2023-05-20T12:36:34.374Z,17.90
2023-05-20T12:39:03.829Z,14.60
2023-05-20T12:41:31.590Z,16.70
2023-05-20T12:43:59.572Z,16.10
2023-05-20T12:46:27.407Z,15.10
2023-05-20T12:48:55.278Z,16.30
2023-05-20T12:51:23.189Z,12.60
2023-05-20T12:53:51.271Z,13.70
2023-05-20T12:56:20.067Z,13.80
2023-05-20T12:58:48.669Z,17.80
2023-05-20T13:01:16.621Z,13.70
2023-05-20T13:03:44.765Z,13.30
2023-05-20T13:06:12.853Z,15.00
2023-05-20T13:08:40.818Z,15.10
2023-05-20T13:11:08.634Z,15.60
2023-05-20T13:13:36.579Z,14.10
2023-05-20T13:16:05.081Z,12.70
2023-05-20T13:18:32.914Z,13.60
2023-05-20T13:21:00.781Z,13.40
2023-05-20T13:23:28.666Z,14.70
2023-05-20T13:25:56.534Z,13.60
2023-05-20T13:28:24.550Z,15.20
2023-05-20T13:30:52.543Z,13.50
2023-05-20T13:33:20.516Z,12.00
2023-05-20T13:35:48.463Z,12.90
2023-05-20T13:38:16.346Z,17.20
2023-05-20T13:40:44.170Z,16.60
2023-05-20T13:43:11.918Z,15.40
2023-05-20T13:45:39.735Z,14.70
2023-05-20T13:48:07.778Z,17.30
2023-05-20T13:50:36.067Z,15.40
2023-05-20T13:53:04.094Z,14.50
2023-05-20T13:55:32.890Z,14.60
2023-05-20T13:58:00.784Z,15.60
2023-05-20T14:00:29.126Z,12.90
2023-05-20T14:02:57.114Z,14.00
2023-05-20T14:05:25.070Z,15.50
2023-05-20T14:07:52.935Z,14.70
2023-05-20T14:10:20.969Z,15.50
2023-05-20T14:12:48.986Z,15.10
2023-05-20T14:15:16.915Z,13.00
2023-05-20T14:17:44.899Z,15.30
2023-05-20T14:20:12.923Z,12.90
2023-05-20T14:22:40.767Z,16.70
2023-05-20T14:25:08.869Z,13.40
2023-05-20T14:27:36.677Z,19.20
2023-05-20T14:30:05.511Z,14.90
2023-05-20T14:32:33.471Z,16.40
2023-05-20T14:35:01.554Z,12.30
2023-05-20T14:37:29.784Z,13.00
2023-05-20T14:39:58.012Z,11.70
2023-05-20T14:42:26.296Z,13.00
2023-05-20T14:44:54.132Z,11.50
2023-05-20T14:47:22.521Z,12.50
2023-05-20T14:49:50.480Z,13.30
2023-05-20T14:52:18.567Z,11.70
2023-05-20T14:54:46.401Z,10.40
2023-05-20T14:57:15.926Z,11.90
2023-05-20T14:59:44.117Z,13.10
2023-05-20T15:02:14.782Z,13.80
2023-05-20T15:04:46.648Z,13.10
2023-05-20T15:07:15.297Z,12.40
2023-05-20T15:09:44.007Z,11.60
2023-05-20T15:12:13.219Z,11.50
2023-05-20T15:14:41.155Z,13.00
2023-05-20T15:17:09.233Z,13.30
2023-05-20T15:19:38.992Z,12.50
2023-05-20T15:22:09.148Z,12.30
2023-05-20T15:24:37.752Z,13.20
2023-05-20T15:27:06.366Z,12.30
2023-05-20T15:29:34.304Z,12.70
2023-05-20T15:32:02.627Z,14.20
2023-05-20T15:34:30.557Z,13.40
2023-05-20T15:36:58.354Z,13.90
2023-05-20T15:39:26.276Z,13.70
2023-05-20T15:41:54.301Z,13.00
2023-05-20T15:44:22.389Z,15.60
2023-05-20T15:46:50.496Z,13.80
2023-05-20T15:49:18.429Z,14.90
2023-05-20T15:51:52.350Z,16.00
2023-05-20T15:54:27.560Z,14.60
2023-05-20T15:56:55.492Z,15.80
2023-05-20T15:59:23.412Z,15.00
2023-05-20T16:01:51.400Z,14.70
2023-05-20T16:04:19.351Z,16.40
2023-05-20T16:06:47.459Z,14.30
2023-05-20T16:09:15.392Z,13.10
2023-05-20T16:11:44.038Z,13.20
2023-05-20T16:14:11.969Z,13.30
2023-05-20T16:16:40.001Z,13.70
2023-05-20T16:19:08.204Z,15.50
2023-05-20T16:21:36.205Z,13.60
2023-05-20T16:24:04.568Z,12.70
2023-05-20T16:26:32.531Z,12.20
2023-05-20T16:29:00.517Z,14.70
2023-05-20T16:31:28.427Z,14.90
2023-05-20T16:33:56.649Z,15.70
2023-05-20T16:36:24.478Z,15.20
2023-05-20T16:38:52.407Z,14.40
2023-05-20T16:41:20.972Z,16.40
2023-05-20T16:43:48.790Z,11.70
2023-05-20T16:46:16.769Z,13.30
2023-05-20T16:48:44.645Z,12.80
2023-05-20T16:51:12.477Z,12.30
2023-05-20T16:53:40.636Z,12.00
2023-05-20T16:56:08.556Z,11.60
2023-05-20T16:58:36.558Z,12.00
2023-05-20T17:01:04.565Z,13.10
2023-05-20T17:03:32.604Z,15.10
2023-05-20T17:06:00.618Z,12.00
2023-05-20T17:08:29.857Z,15.60
2023-05-20T17:10:57.776Z,13.40
2023-05-20T17:13:25.679Z,14.30
2023-05-20T17:15:53.596Z,12.90
2023-05-20T17:18:21.495Z,14.20
2023-05-20T17:20:49.320Z,12.30
2023-05-20T17:23:17.129Z,12.80
2023-05-20T17:25:44.954Z,16.60
2023-05-20T17:28:12.806Z,12.20
2023-05-20T17:30:40.704Z,14.90
2023-05-20T17:33:08.736Z,15.80
2023-05-20T17:35:39.313Z,13.80
2023-05-20T17:38:07.202Z,14.10
2023-05-20T17:40:35.711Z,15.10
2023-05-20T17:43:03.946Z,14.50
2023-05-20T17:45:31.831Z,14.60
2023-05-20T17:47:59.618Z,18.10
2023-05-20T17:50:27.771Z,16.40
2023-05-20T17:52:55.641Z,21.10
2023-05-20T17:55:26.177Z,19.50
2023-05-20T17:57:54.081Z,19.30
2023-05-20T18:00:22.007Z,19.40
2023-05-20T18:02:50.353Z,14.40
2023-05-20T18:05:18.973Z,17.40
2023-05-20T18:07:46.887Z,15.30
2023-05-20T18:10:15.132Z,25.60
2023-05-20T18:12:43.219Z,17.20
2023-05-20T18:15:13.934Z,19.00
2023-05-20T18:17:41.866Z,21.60
2023-05-20T18:20:11.157Z,20.20
2023-05-20T18:22:45.866Z,18.10
2023-05-20T18:25:17.476Z,18.50
2023-05-20T18:27:45.491Z,17.20
2023-05-20T18:30:13.565Z,16.30
2023-05-20T18:32:42.156Z,16.80
2023-05-20T18:35:10.588Z,19.00
2023-05-20T18:37:38.503Z,17.40
2023-05-20T18:40:08.846Z,17.70
2023-05-20T18:42:37.303Z,15.80
2023-05-20T18:45:05.951Z,17.90
2023-05-20T18:47:33.932Z,17.00
2023-05-20T18:50:01.888Z,17.40
2023-05-20T18:52:30.253Z,21.00
2023-05-20T18:54:58.229Z,20.60
2023-05-20T18:57:26.214Z,18.40
2023-05-20T18:59:54.415Z,15.60
2023-05-20T19:02:22.397Z,19.80
2023-05-20T19:04:51.246Z,15.70
2023-05-20T19:07:19.425Z,15.90
2023-05-20T19:09:47.970Z,14.50
2023-05-20T19:12:16.053Z,18.10
2023-05-20T19:14:45.542Z,15.30
2023-05-20T19:17:13.950Z,16.50
2023-05-20T19:19:42.918Z,16.70
2023-05-20T19:22:10.947Z,15.50
2023-05-20T19:24:39.359Z,14.60
2023-05-20T19:27:07.674Z,15.00
2023-05-20T19:29:35.538Z,14.90
2023-05-20T19:32:03.502Z,14.60
2023-05-20T19:34:31.395Z,16.50
2023-05-20T19:36:59.365Z,17.70
2023-05-20T19:39:27.365Z,16.70
2023-05-20T19:41:55.498Z,15.50
2023-05-20T19:44:23.433Z,17.40
2023-05-20T19:46:52.822Z,16.10
2023-05-20T19:49:21.464Z,16.50
2023-05-20T19:51:49.605Z,16.90
2023-05-20T19:54:17.585Z,16.40
2023-05-20T19:56:45.496Z,14.50
2023-05-20T19:59:13.351Z,15.50
2023-05-20T20:01:41.471Z,17.10
2023-05-20T20:04:09.416Z,17.40
2023-05-20T20:06:37.308Z,15.40
2023-05-20T20:09:05.362Z,15.40
2023-05-20T20:11:33.241Z,17.20
2023-05-20T20:14:01.117Z,15.00
2023-05-20T20:16:29.311Z,16.80
2023-05-20T20:18:57.212Z,15.60
2023-05-20T20:21:25.837Z,17.50
2023-05-20T20:23:53.853Z,15.60
2023-05-20T20:26:26.053Z,19.00
2023-05-20T20:28:54.113Z,19.60
2023-05-20T20:31:21.927Z,15.00
2023-05-20T20:33:50.659Z,14.10
2023-05-20T20:36:18.658Z,15.90
2023-05-20T20:38:47.229Z,14.50
2023-05-20T20:41:16.350Z,14.40
2023-05-20T20:43:47.400Z,16.30
2023-05-20T20:46:15.255Z,16.10
2023-05-20T20:48:45.866Z,14.50
2023-05-20T20:51:17.277Z,16.20
2023-05-20T20:53:47.134Z,15.50
2023-05-20T20:56:14.961Z,17.00
2023-05-20T20:58:44.973Z,15.10
2023-05-20T21:01:17.784Z,16.40
2023-05-20T21:03:46.266Z,14.00
2023-05-20T21:06:14.213Z,15.10
2023-05-20T21:08:42.655Z,16.10
2023-05-20T21:11:10.512Z,17.70
2023-05-20T21:13:39.637Z,14.90
2023-05-20T21:16:07.501Z,19.80
2023-05-20T21:18:35.940Z,25.20
2023-05-20T21:21:04.991Z,20.30
2023-05-20T21:23:32.847Z,18.90
2023-05-20T21:26:00.704Z,18.80
2023-05-20T21:28:28.731Z,18.00
2023-05-20T21:30:56.497Z,18.60
2023-05-20T21:33:25.398Z,18.20
2023-05-20T21:35:53.257Z,18.80
2023-05-20T21:38:21.820Z,17.30
2023-05-20T21:40:49.583Z,16.90
2023-05-20T21:43:17.554Z,16.00
2023-05-20T21:45:46.470Z,15.60
2023-05-20T21:48:14.491Z,16.70
2023-05-20T21:50:42.334Z,17.60
2023-05-20T21:53:10.267Z,16.40
2023-05-20T21:55:38.513Z,17.20
2023-05-20T21:58:06.946Z,18.00
2023-05-20T22:00:35.106Z,18.50
2023-05-20T22:03:03.028Z,16.20
2023-05-20T22:05:31.169Z,18.80
2023-05-20T22:08:00.569Z,19.90
2023-05-20T22:10:28.452Z,20.40
2023-05-20T22:12:58.200Z,25.20
2023-05-20T22:15:26.316Z,26.30
2023-05-20T22:17:54.980Z,24.70
2023-05-20T22:20:23.205Z,26.20
2023-05-20T22:22:51.190Z,21.10
2023-05-20T22:25:18.971Z,22.10
2023-05-20T22:27:47.203Z,21.10
2023-05-20T22:30:15.017Z,21.90
2023-05-20T22:32:42.919Z,21.60
2023-05-20T22:35:13.167Z,20.00
2023-05-20T22:37:41.964Z,23.00
2023-05-20T22:40:10.741Z,19.70
2023-05-20T22:42:38.646Z,18.70
2023-05-20T22:45:07.268Z,20.20
2023-05-20T22:47:35.168Z,22.00
2023-05-20T22:50:03.320Z,20.60
2023-05-20T22:52:31.745Z,22.50
2023-05-20T22:54:59.601Z,25.00
2023-05-20T22:57:27.449Z,20.70
2023-05-20T22:59:55.733Z,20.90
2023-05-20T23:02:23.561Z,23.10
2023-05-20T23:04:51.745Z,23.50
2023-05-20T23:07:19.771Z,24.00
2023-05-20T23:09:48.702Z,23.20
2023-05-20T23:12:16.599Z,22.60
2023-05-20T23:14:44.517Z,25.40
2023-05-20T23:17:12.287Z,20.50
2023-05-20T23:19:40.775Z,21.10
2023-05-20T23:22:08.628Z,20.70
2023-05-20T23:24:36.508Z,20.20
2023-05-20T23:27:06.125Z,20.80
2023-05-20T23:29:33.935Z,21.20
2023-05-20T23:32:01.792Z,20.90
2023-05-20T23:34:30.889Z,20.20
2023-05-20T23:36:58.649Z,18.10
2023-05-20T23:39:26.492Z,18.10
2023-05-20T23:41:54.404Z,19.20
2023-05-20T23:44:22.296Z,19.10
2023-05-20T23:46:51.043Z,16.00
2023-05-20T23:49:24.446Z,20.40
2023-05-20T23:51:53.451Z,17.60
2023-05-20T23:54:22.958Z,19.10
2023-05-20T23:56:50.957Z,16.80
2023-05-20T23:59:18.809Z,17.40
